Time;durP1;ratioP1;P1;durP2;ratioP2;P2;SDS_P1;SDS_P2;PMS_P1;PMS_P2;Temp;Humidity;BMP_temperature;BMP_pressure;BME280_temperature;BME280_humidity;BME280_pressure;Samples;Min_cycle;Max_cycle;Signal;HPM_P1;HPM_P2
2022/06/26 00:01:50;;;;;;;3.72;2.95;;;;;;;21.01;100.00;97992.36;1703971;84;28091;-85
2022/06/26 00:04:16;;;;;;;4.05;2.65;;;;;;;21.02;100.00;97996.67;1704818;82;28016;-84
2022/06/26 00:06:42;;;;;;;6.35;3.33;;;;;;;21.03;100.00;98000.98;1702310;84;28126;-85
2022/06/26 00:09:12;;;;;;;3.75;2.85;;;;;;;21.03;100.00;98004.98;1704100;84;28161;-84
2022/06/26 00:11:41;;;;;;;3.55;2.98;;;;;;;21.02;100.00;98002.83;1704687;83;28024;-84
2022/06/26 00:14:07;;;;;;;4.00;3.20;;;;;;;21.03;100.00;98007.64;1703766;83;28095;-84
2022/06/26 00:16:33;;;;;;;5.15;2.98;;;;;;;21.02;100.00;98006.81;1705482;82;28169;-85
2022/06/26 00:19:00;;;;;;;4.37;3.30;;;;;;;21.01;100.00;98006.98;1703774;82;28083;-84
2022/06/26 00:21:26;;;;;;;5.95;3.62;;;;;;;20.99;100.00;98013.02;1704236;83;28180;-85
2022/06/26 00:23:54;;;;;;;3.77;2.95;;;;;;;20.97;100.00;98013.70;1701495;84;28075;-84
2022/06/26 00:26:20;;;;;;;3.67;3.27;;;;;;;20.92;100.00;98012.09;1703935;83;28087;-85
2022/06/26 00:28:46;;;;;;;4.78;3.20;;;;;;;20.88;100.00;98011.13;1704887;82;28584;-86
2022/06/26 00:31:13;;;;;;;6.40;3.55;;;;;;;20.83;100.00;98011.36;1704102;83;28181;-85
2022/06/26 00:33:39;;;;;;;4.72;3.62;;;;;;;20.77;100.00;98010.75;1704133;83;28122;-85
2022/06/26 00:36:05;;;;;;;4.58;3.60;;;;;;;20.71;100.00;98016.80;1703641;82;28004;-85
2022/06/26 00:38:31;;;;;;;4.58;3.47;;;;;;;20.64;100.00;98011.86;1703504;84;28091;-84
2022/06/26 00:40:58;;;;;;;4.58;3.47;;;;;;;20.57;100.00;98009.59;1702363;84;28150;-84
2022/06/26 00:43:28;;;;;;;5.90;3.42;;;;;;;20.53;100.00;98006.98;1703886;84;28115;-84
2022/06/26 00:45:55;;;;;;;8.15;3.27;;;;;;;20.49;100.00;98004.37;1705095;83;28093;-84
2022/06/26 00:48:26;;;;;;;4.78;3.22;;;;;;;20.46;100.00;98002.38;1703953;84;28106;-84
2022/06/26 00:50:51;;;;;;;4.65;3.67;;;;;;;20.45;100.00;98002.58;1702705;83;28166;-85
2022/06/26 00:53:18;;;;;;;4.97;3.52;;;;;;;20.43;100.00;98002.76;1704410;82;28046;-84
2022/06/26 00:55:44;;;;;;;6.83;3.75;;;;;;;20.39;100.00;97998.81;1703841;83;28083;-84
2022/06/26 00:58:11;;;;;;;6.05;3.55;;;;;;;20.34;100.00;98002.52;1703478;83;28118;-85
2022/06/26 01:00:37;;;;;;;5.97;4.45;;;;;;;20.32;100.00;98002.35;1704425;83;28115;-85
2022/06/26 01:03:03;;;;;;;5.28;3.87;;;;;;;20.29;100.00;98007.48;1704298;83;28123;-84
2022/06/26 01:05:29;;;;;;;5.75;3.33;;;;;;;20.25;100.00;98003.53;1704553;84;28194;-84
2022/06/26 01:07:55;;;;;;;6.97;3.75;;;;;;;20.19;100.00;98001.58;1702416;82;28120;-87
2022/06/26 01:10:22;;;;;;;5.55;3.37;;;;;;;20.18;100.00;98001.28;1704358;82;28066;-84
2022/06/26 01:12:48;;;;;;;7.75;3.80;;;;;;;20.11;100.00;97995.02;1704554;83;28090;-88
2022/06/26 01:15:14;;;;;;;4.95;4.15;;;;;;;20.09;100.00;97996.19;1702856;82;28237;-84
2022/06/26 01:17:44;;;;;;;6.42;4.00;;;;;;;20.04;100.00;98000.21;1700086;84;28109;-84
2022/06/26 01:20:11;;;;;;;4.60;3.42;;;;;;;20.03;100.00;97999.05;1701111;83;28107;-84
2022/06/26 01:22:37;;;;;;;7.37;4.42;;;;;;;20.00;100.00;97998.09;1699778;83;28173;-88
2022/06/26 01:25:04;;;;;;;4.83;3.47;;;;;;;19.97;100.00;97999.75;1699189;83;28060;-88
2022/06/26 01:27:42;;;;;;;5.47;3.92;;;;;;;19.94;100.00;97998.30;1699259;82;28162;-84
2022/06/26 01:30:10;;;;;;;6.15;3.62;;;;;;;19.94;100.00;97997.47;1700014;83;28161;-87
2022/06/26 01:32:36;;;;;;;4.40;3.40;;;;;;;19.87;100.00;97996.51;1698372;83;28087;-83
2022/06/26 01:35:03;;;;;;;5.37;3.80;;;;;;;19.89;100.00;97999.33;1700731;84;28163;-88
2022/06/26 01:37:29;;;;;;;4.42;3.83;;;;;;;19.85;100.00;97999.36;1702802;82;28098;-83
2022/06/26 01:39:55;;;;;;;4.53;3.58;;;;;;;19.83;100.00;98004.02;1699736;84;28107;-85
2022/06/26 01:42:21;;;;;;;6.35;4.30;;;;;;;19.83;100.00;98001.85;1699795;84;28095;-83
2022/06/26 01:44:53;;;;;;;5.30;3.87;;;;;;;19.84;100.00;98002.19;1699491;83;43050;-83
2022/06/26 01:47:19;;;;;;;5.30;3.80;;;;;;;19.84;100.00;98000.86;1699650;84;28083;-84
2022/06/26 01:49:45;;;;;;;4.97;3.80;;;;;;;19.82;100.00;98001.02;1700461;84;28150;-84
2022/06/26 01:52:11;;;;;;;4.85;3.58;;;;;;;19.79;100.00;98002.72;1701503;84;28114;-84
2022/06/26 01:54:37;;;;;;;4.35;3.30;;;;;;;19.77;100.00;98002.05;1701190;82;28083;-84
2022/06/26 01:57:04;;;;;;;5.95;4.00;;;;;;;19.75;100.00;97998.73;1699874;84;28145;-84
2022/06/26 01:59:30;;;;;;;6.95;4.12;;;;;;;19.73;100.00;98006.57;1699992;84;28123;-84
2022/06/26 02:01:57;;;;;;;6.25;4.25;;;;;;;19.72;100.00;98004.91;1698558;83;28068;-87
2022/06/26 02:04:23;;;;;;;4.72;3.67;;;;;;;19.79;100.00;98005.38;1699889;84;28146;-84
2022/06/26 02:06:49;;;;;;;5.35;3.90;;;;;;;19.84;100.00;98008.83;1699995;84;28524;-83
2022/06/26 02:14:48;;;;;;;5.20;3.40;;;;;;;19.76;100.00;98003.55;1699101;84;28102;-84
2022/06/26 02:17:14;;;;;;;5.08;3.30;;;;;;;19.71;100.00;98009.89;1703504;83;43038;-88
2022/06/26 02:19:40;;;;;;;6.50;3.60;;;;;;;19.68;100.00;98003.11;1704315;82;28119;-86
2022/06/26 02:22:06;;;;;;;4.85;3.58;;;;;;;19.73;100.00;98007.39;1704048;83;28122;-84
2022/06/26 02:24:32;;;;;;;5.33;3.35;;;;;;;19.76;100.00;98015.50;1701902;84;28094;-85
2022/06/26 02:26:59;;;;;;;5.05;3.60;;;;;;;19.74;100.00;98017.02;1703316;82;28113;-87
2022/06/26 02:29:25;;;;;;;5.35;4.00;;;;;;;19.72;100.00;98014.20;1703539;84;28173;-83
2022/06/26 02:31:51;;;;;;;3.87;3.42;;;;;;;19.76;100.00;98020.81;1704270;84;28115;-87
2022/06/26 02:34:17;;;;;;;4.37;3.55;;;;;;;19.78;100.00;98020.98;1703849;83;28091;-87
2022/06/26 02:36:43;;;;;;;5.67;3.58;;;;;;;19.77;100.00;98030.44;1703678;84;28091;-84
2022/06/26 02:39:10;;;;;;;6.05;3.70;;;;;;;19.82;100.00;98030.73;1702387;84;28138;-84
2022/06/26 02:41:36;;;;;;;6.53;3.92;;;;;;;19.82;100.00;98032.89;1703579;84;28177;-85
2022/06/26 02:44:02;;;;;;;4.03;3.58;;;;;;;19.79;100.00;98031.09;1705625;82;28508;-84
2022/06/26 02:46:31;;;;;;;4.03;3.22;;;;;;;19.62;100.00;98032.52;1704169;83;28453;-84
2022/06/26 02:48:57;;;;;;;3.98;2.95;;;;;;;19.50;100.00;98045.01;1704043;83;28193;-88
2022/06/26 02:51:23;;;;;;;5.55;3.25;;;;;;;19.46;100.00;98039.73;1704707;82;28158;-88
2022/06/26 02:53:49;;;;;;;4.25;3.35;;;;;;;19.44;100.00;98042.52;1703629;82;28149;-84
2022/06/26 02:56:16;;;;;;;4.37;3.30;;;;;;;19.42;100.00;98043.17;1704113;83;28023;-87
2022/06/26 02:58:42;;;;;;;4.85;3.50;;;;;;;19.48;100.00;98041.19;1703773;83;28108;-88
2022/06/26 03:01:08;;;;;;;3.10;2.80;;;;;;;19.56;100.00;98046.98;1706173;82;28087;-88
2022/06/26 03:03:34;;;;;;;4.85;4.15;;;;;;;19.61;100.00;98052.09;1704431;83;28034;-88
2022/06/26 03:06:00;;;;;;;4.28;3.47;;;;;;;19.71;100.00;98055.86;1704528;83;28134;-89
2022/06/26 03:08:27;;;;;;;4.72;3.60;;;;;;;19.81;100.00;98058.29;1704814;82;28092;-89
2022/06/26 03:10:53;;;;;;;4.00;3.47;;;;;;;19.89;100.00;98052.95;1704608;83;28089;-89
2022/06/26 03:13:19;;;;;;;5.80;3.42;;;;;;;19.94;100.00;98054.08;1702538;83;28122;-85
2022/06/26 03:15:45;;;;;;;3.80;3.37;;;;;;;19.97;100.00;98051.05;1703604;83;28162;-85
2022/06/26 03:18:12;;;;;;;4.53;3.70;;;;;;;20.00;100.00;98055.20;1700687;82;28111;-85
2022/06/26 03:20:40;;;;;;;5.55;4.00;;;;;;;19.85;100.00;98056.96;1699328;83;28184;-85
2022/06/26 03:23:06;;;;;;;5.58;3.65;;;;;;;19.61;100.00;98055.24;1700387;83;28236;-88
2022/06/26 03:25:32;;;;;;;5.03;3.37;;;;;;;19.38;100.00;98064.42;1699476;83;28064;-88
2022/06/26 03:27:59;;;;;;;3.67;3.20;;;;;;;19.26;100.00;98060.48;1701006;83;28114;-84
2022/06/26 03:30:25;;;;;;;3.60;3.30;;;;;;;19.36;100.00;98052.34;1699025;83;28012;-87
2022/06/26 03:32:51;;;;;;;4.17;3.35;;;;;;;19.49;100.00;98064.09;1698694;83;28079;-84
2022/06/26 03:35:18;;;;;;;4.10;3.40;;;;;;;19.67;100.00;98064.34;1700181;83;28390;-84
2022/06/26 03:37:44;;;;;;;4.03;3.22;;;;;;;19.77;100.00;98060.97;1700342;83;28024;-85
2022/06/26 03:40:11;;;;;;;3.70;3.40;;;;;;;19.97;100.00;98064.83;1698832;83;28174;-85
2022/06/26 03:42:38;;;;;;;6.90;3.42;;;;;;;20.23;100.00;98073.33;1699747;83;28047;-84
2022/06/26 03:45:05;;;;;;;3.83;3.10;;;;;;;20.47;100.00;98068.34;1698938;83;28091;-84
2022/06/26 03:47:33;;;;;;;4.53;3.70;;;;;;;20.71;100.00;98075.30;1697839;84;28099;-84
2022/06/26 03:49:59;;;;;;;4.40;3.55;;;;;;;20.93;100.00;98074.43;1700670;83;28099;-83
2022/06/26 03:52:26;;;;;;;4.03;3.25;;;;;;;21.08;100.00;98074.44;1700050;83;28189;-84
2022/06/26 03:54:52;;;;;;;5.58;3.65;;;;;;;21.21;100.00;98072.02;1699592;83;28082;-84
2022/06/26 03:57:19;;;;;;;4.03;3.45;;;;;;;21.40;100.00;98075.95;1699753;83;28146;-84
2022/06/26 03:59:45;;;;;;;3.90;3.47;;;;;;;21.55;100.00;98074.92;1698415;83;28654;-85
2022/06/26 04:02:11;;;;;;;4.40;3.98;;;;;;;21.76;100.00;98078.19;1699450;84;28154;-88
2022/06/26 04:04:38;;;;;;;4.03;3.20;;;;;;;21.95;100.00;98072.78;1700345;84;28012;-84
2022/06/26 04:07:04;;;;;;;5.08;3.40;;;;;;;22.13;100.00;98074.53;1700063;83;28020;-84
2022/06/26 04:09:31;;;;;;;3.90;3.47;;;;;;;22.32;100.00;98081.90;1700432;83;28096;-84
2022/06/26 04:11:57;;;;;;;5.67;3.33;;;;;;;22.39;100.00;98077.47;1699536;84;28204;-84
2022/06/26 04:14:23;;;;;;;4.42;3.30;;;;;;;22.36;100.00;98075.70;1700088;83;28091;-84
2022/06/26 04:16:49;;;;;;;4.40;3.47;;;;;;;22.52;100.00;98080.78;1700826;82;28236;-84
2022/06/26 04:19:17;;;;;;;5.20;3.72;;;;;;;22.79;100.00;98073.86;1703217;82;28098;-85
2022/06/26 04:21:43;;;;;;;3.98;3.17;;;;;;;23.02;100.00;98073.63;1704161;83;28107;-88
2022/06/26 04:24:10;;;;;;;6.55;3.45;;;;;;;23.26;100.00;98073.16;1704733;82;28155;-84
2022/06/26 04:26:36;;;;;;;5.65;3.40;;;;;;;23.44;100.00;98076.66;1704215;82;28107;-84
2022/06/26 04:29:02;;;;;;;4.53;3.47;;;;;;;23.61;100.00;98078.02;1704002;83;28087;-88
2022/06/26 04:31:29;;;;;;;4.97;3.85;;;;;;;23.74;100.00;98078.88;1702767;82;28170;-88
2022/06/26 04:33:55;;;;;;;4.92;3.65;;;;;;;23.84;100.00;98085.73;1705243;83;28102;-85
2022/06/26 04:36:21;;;;;;;4.20;3.80;;;;;;;23.85;100.00;98090.84;1704671;84;28070;-88
2022/06/26 04:38:49;;;;;;;3.47;3.17;;;;;;;23.84;100.00;98082.52;1703969;82;28174;-85
2022/06/26 04:41:31;;;;;;;3.72;3.25;;;;;;;23.87;100.00;98093.33;1704091;84;28099;-85
2022/06/26 04:43:58;;;;;;;3.70;3.40;;;;;;;23.89;100.00;98085.95;1705357;83;28106;-85
2022/06/26 04:46:24;;;;;;;4.40;3.58;;;;;;;23.96;100.00;98095.63;1704524;83;28089;-84
2022/06/26 04:48:54;;;;;;;4.65;3.87;;;;;;;24.02;100.00;98093.48;1704276;82;28045;-84
2022/06/26 04:51:20;;;;;;;3.90;3.52;;;;;;;24.04;100.00;98091.96;1704430;83;28095;-84
2022/06/26 04:53:46;;;;;;;3.92;3.52;;;;;;;24.04;100.00;98093.30;1704616;83;28175;-84
2022/06/26 04:56:13;;;;;;;4.62;3.30;;;;;;;24.00;100.00;98094.19;1704552;83;28072;-84
2022/06/26 04:58:39;;;;;;;7.45;3.50;;;;;;;24.04;100.00;98091.96;1704507;82;28219;-85
2022/06/26 05:01:05;;;;;;;4.75;3.95;;;;;;;23.96;100.00;98098.30;1704360;82;28113;-85
2022/06/26 05:03:31;;;;;;;5.05;4.12;;;;;;;23.96;100.00;98092.95;1703242;82;28098;-84
2022/06/26 05:05:58;;;;;;;4.33;3.30;;;;;;;23.95;100.00;98096.64;1704005;82;28024;-88
2022/06/26 05:08:24;;;;;;;4.08;3.50;;;;;;;23.91;100.00;98097.25;1704260;83;28106;-85
2022/06/26 05:10:50;;;;;;;3.75;3.37;;;;;;;23.83;100.00;98097.44;1704582;84;28088;-85
2022/06/26 05:13:19;;;;;;;5.30;3.80;;;;;;;23.76;100.00;98091.55;1704915;84;28075;-85
2022/06/26 05:15:46;;;;;;;5.03;3.42;;;;;;;23.72;100.00;98095.64;1705241;82;28201;-85
2022/06/26 05:18:13;;;;;;;5.30;3.92;;;;;;;23.66;100.00;98094.27;1704039;82;28079;-85
2022/06/26 05:20:39;;;;;;;4.40;3.52;;;;;;;23.57;100.00;98098.94;1704975;84;28106;-85
2022/06/26 05:23:07;;;;;;;4.12;3.58;;;;;;;23.50;100.00;98103.44;1701881;83;28077;-85
2022/06/26 05:25:34;;;;;;;5.62;4.00;;;;;;;23.37;100.00;98108.66;1703570;84;28074;-85
2022/06/26 05:28:00;;;;;;;7.08;3.52;;;;;;;23.34;100.00;98101.05;1705142;82;28071;-84
2022/06/26 05:30:26;;;;;;;4.03;3.55;;;;;;;23.32;100.00;98102.58;1704855;83;28083;-84
2022/06/26 05:32:52;;;;;;;4.20;3.80;;;;;;;23.31;100.00;98103.59;1704896;84;28090;-85
2022/06/26 05:35:19;;;;;;;4.15;3.50;;;;;;;23.23;100.00;98110.44;1705094;82;28148;-85
2022/06/26 05:37:45;;;;;;;5.42;3.52;;;;;;;23.22;100.00;98111.95;1704439;82;28184;-85
2022/06/26 05:40:11;;;;;;;3.60;3.22;;;;;;;23.29;100.00;98114.17;1704398;83;28197;-84
2022/06/26 05:42:38;;;;;;;3.87;3.47;;;;;;;23.28;100.00;98112.00;1704792;82;28062;-84
2022/06/26 05:45:07;;;;;;;5.65;3.25;;;;;;;23.27;100.00;98114.36;1704848;82;28117;-85
2022/06/26 05:47:34;;;;;;;4.03;3.45;;;;;;;23.12;100.00;98114.97;1705235;83;28083;-85
2022/06/26 05:50:04;;;;;;;3.70;3.35;;;;;;;23.02;100.00;98121.67;1705281;82;28091;-85
2022/06/26 05:52:30;;;;;;;3.58;3.25;;;;;;;22.95;100.00;98121.61;1704573;82;28469;-88
2022/06/26 05:54:56;;;;;;;3.67;3.15;;;;;;;23.02;100.00;98121.13;1705089;83;28218;-85
2022/06/26 05:57:23;;;;;;;3.42;3.05;;;;;;;23.06;100.00;98125.09;1703130;83;28080;-85
2022/06/26 05:59:49;;;;;;;6.15;3.70;;;;;;;23.00;100.00;98128.53;1705054;83;28122;-85
2022/06/26 06:02:15;;;;;;;6.15;3.52;;;;;;;23.06;100.00;98141.11;1705019;83;28682;-85
2022/06/26 06:04:41;;;;;;;5.33;3.35;;;;;;;23.21;100.00;98137.83;1678944;84;28120;-85
2022/06/26 06:07:08;;;;;;;5.87;3.40;;;;;;;23.35;100.00;98136.06;1704641;83;28020;-85
2022/06/26 06:09:35;;;;;;;4.25;3.12;;;;;;;23.41;100.00;98143.30;1704168;84;28091;-85
2022/06/26 06:12:02;;;;;;;3.60;3.30;;;;;;;23.50;100.00;98141.34;1704801;83;28105;-85
2022/06/26 06:14:28;;;;;;;6.05;4.05;;;;;;;23.54;100.00;98145.27;1704777;84;28129;-86
2022/06/26 06:16:54;;;;;;;4.58;3.60;;;;;;;23.56;100.00;98145.41;1703813;82;28004;-85
2022/06/26 06:19:20;;;;;;;5.40;3.70;;;;;;;23.60;100.00;98149.32;1699720;83;28145;-85
2022/06/26 06:21:47;;;;;;;4.03;3.40;;;;;;;23.49;100.00;98145.86;1700727;83;28083;-86
2022/06/26 06:24:13;;;;;;;3.90;3.22;;;;;;;23.30;100.00;98148.67;1699556;83;28126;-85
2022/06/26 06:26:39;;;;;;;5.03;3.60;;;;;;;23.20;100.00;98147.36;1698386;83;28123;-89
2022/06/26 06:29:05;;;;;;;4.45;3.65;;;;;;;23.26;100.00;98146.59;1699629;83;28088;-84
2022/06/26 06:31:32;;;;;;;3.87;3.52;;;;;;;23.37;100.00;98146.05;1701112;84;28118;-84
2022/06/26 06:33:59;;;;;;;4.37;3.40;;;;;;;23.49;100.00;98150.38;1699991;83;28060;-83
2022/06/26 06:36:25;;;;;;;4.05;3.20;;;;;;;23.38;100.00;98151.71;1700662;83;28104;-87
2022/06/26 06:38:57;;;;;;;3.75;3.33;;;;;;;23.32;100.00;98155.16;1697851;83;28170;-84
2022/06/26 06:41:23;;;;;;;5.72;3.98;;;;;;;23.31;100.00;98154.84;1700964;84;28142;-85
2022/06/26 06:43:50;;;;;;;5.17;3.58;;;;;;;23.27;100.00;98153.58;1701238;82;28111;-88
2022/06/26 06:46:16;;;;;;;4.90;3.35;;;;;;;23.30;100.00;98156.68;1700296;83;28020;-88
2022/06/26 06:48:42;;;;;;;4.42;3.37;;;;;;;23.35;100.00;98154.76;1699595;84;28478;-84
2022/06/26 06:51:08;;;;;;;3.52;3.22;;;;;;;23.47;100.00;98152.41;1698856;84;28122;-83
2022/06/26 06:53:34;;;;;;;3.02;2.70;;;;;;;23.54;100.00;98162.13;1700148;84;28086;-83
2022/06/26 06:56:03;;;;;;;3.50;2.75;;;;;;;23.64;100.00;98157.76;1699739;84;28122;-85
2022/06/26 06:58:30;;;;;;;4.20;2.90;;;;;;;23.64;100.00;98163.10;1700022;84;28111;-85
2022/06/26 07:00:56;;;;;;;3.72;3.17;;;;;;;23.70;100.00;98161.81;1700552;82;28115;-84
2022/06/26 07:03:23;;;;;;;5.03;2.85;;;;;;;23.77;100.00;98161.86;1699840;83;28149;-83
2022/06/26 07:05:49;;;;;;;3.37;2.70;;;;;;;23.73;100.00;98154.72;1699404;83;28130;-88
2022/06/26 07:08:15;;;;;;;4.92;2.72;;;;;;;23.80;100.00;98165.97;1699540;84;28128;-83
2022/06/26 07:10:42;;;;;;;4.55;2.92;;;;;;;23.90;100.00;98164.58;1699393;83;28080;-85
2022/06/26 07:13:10;;;;;;;4.05;2.45;;;;;;;23.86;100.00;98163.34;1700158;83;28133;-87
2022/06/26 07:15:37;;;;;;;3.15;2.77;;;;;;;23.85;100.00;98164.35;1698876;83;28145;-83
2022/06/26 07:18:03;;;;;;;4.40;2.70;;;;;;;23.87;100.00;98164.98;1701547;82;28167;-83
2022/06/26 07:20:30;;;;;;;3.17;2.62;;;;;;;23.90;100.00;98165.09;1704391;84;28102;-83
2022/06/26 07:22:56;;;;;;;4.65;2.95;;;;;;;24.06;100.00;98164.75;1704276;82;28106;-83
2022/06/26 07:25:24;;;;;;;3.45;3.10;;;;;;;24.16;100.00;98166.06;1704629;84;28173;-84
2022/06/26 07:27:50;;;;;;;3.30;2.87;;;;;;;24.20;100.00;98169.18;1704573;84;28145;-83
2022/06/26 07:30:16;;;;;;;4.35;2.80;;;;;;;24.33;100.00;98167.88;1704323;84;28185;-85
2022/06/26 07:32:44;;;;;;;3.98;3.17;;;;;;;24.46;100.00;98165.25;1704183;84;28102;-84
2022/06/26 07:35:11;;;;;;;3.15;2.65;;;;;;;24.62;100.00;98169.91;1703455;82;28087;-83
2022/06/26 07:37:37;;;;;;;4.37;3.08;;;;;;;24.69;100.00;98174.27;1704306;84;28180;-85
2022/06/26 07:40:05;;;;;;;4.90;3.33;;;;;;;24.72;100.00;98172.51;1704709;82;28087;-84
2022/06/26 07:42:31;;;;;;;4.42;2.85;;;;;;;24.88;100.00;98179.36;1704174;82;28064;-84
2022/06/26 07:44:57;;;;;;;5.35;2.90;;;;;;;24.89;100.00;98175.14;1704370;83;28126;-84
2022/06/26 07:47:23;;;;;;;3.58;3.08;;;;;;;24.86;100.00;98167.50;1704621;83;28138;-84
2022/06/26 07:49:49;;;;;;;4.80;2.75;;;;;;;25.01;100.00;98175.37;1704484;83;28141;-84
2022/06/26 07:52:15;;;;;;;4.25;3.10;;;;;;;25.18;100.00;98171.26;1703845;84;28075;-84
2022/06/26 07:54:42;;;;;;;3.50;2.80;;;;;;;25.30;100.00;98174.97;1704567;84;28067;-83
2022/06/26 07:57:08;;;;;;;4.00;2.83;;;;;;;25.27;100.00;98175.37;1704622;82;28051;-84
2022/06/26 07:59:34;;;;;;;3.65;3.05;;;;;;;25.40;100.00;98172.69;1703895;82;28162;-89
2022/06/26 08:02:01;;;;;;;3.40;2.60;;;;;;;25.47;100.00;98172.69;1704773;82;28067;-89
2022/06/26 08:04:27;;;;;;;3.20;2.90;;;;;;;25.51;100.00;98176.59;1704880;84;28137;-90
2022/06/26 08:06:54;;;;;;;4.25;3.00;;;;;;;25.48;100.00;98178.84;1704525;82;28063;-85
2022/06/26 08:09:20;;;;;;;3.70;3.17;;;;;;;25.48;100.00;98174.31;1704727;84;28075;-89
2022/06/26 08:11:59;;;;;;;3.02;2.83;;;;;;;25.52;100.00;98176.08;1703437;82;28086;-85
2022/06/26 08:14:25;;;;;;;3.47;3.12;;;;;;;25.63;100.00;98177.64;1705290;83;28611;-85
2022/06/26 08:16:51;;;;;;;8.50;3.00;;;;;;;25.66;100.00;98173.70;1705641;82;28098;-89
2022/06/26 08:19:17;;;;;;;5.28;3.20;;;;;;;25.60;100.00;98179.39;1703907;82;28054;-85
2022/06/26 08:22:02;;;;;;;5.85;3.42;;;;;;;25.57;100.00;98171.77;1704000;83;28014;-84
2022/06/26 08:24:30;;;;;;;3.70;3.12;;;;;;;25.76;100.00;98174.09;1704330;83;28099;-86
2022/06/26 08:26:59;;;;;;;5.03;2.95;;;;;;;25.83;100.00;98174.91;1703689;82;28154;-85
2022/06/26 08:29:27;;;;;;;3.27;2.98;;;;;;;25.88;100.00;98180.46;1704242;84;28043;-85
2022/06/26 08:31:53;;;;;;;3.47;2.62;;;;;;;25.94;100.00;98184.16;1703688;83;28178;-89
2022/06/26 08:34:20;;;;;;;4.62;2.98;;;;;;;25.99;100.00;98191.88;1704504;82;28177;-86
2022/06/26 08:36:50;;;;;;;3.87;3.40;;;;;;;26.00;99.91;98181.47;1704053;84;28095;-89
2022/06/26 08:39:16;;;;;;;3.62;3.27;;;;;;;26.12;99.65;98185.66;1705523;83;28106;-86
2022/06/26 08:41:45;;;;;;;4.87;3.17;;;;;;;26.21;99.45;98184.38;1704438;84;28109;-85
2022/06/26 08:44:12;;;;;;;3.45;2.85;;;;;;;26.23;98.82;98190.39;1703380;82;28134;-85
2022/06/26 08:46:48;;;;;;;4.50;3.35;;;;;;;26.29;98.42;98190.06;1704805;84;28095;-86
2022/06/26 08:49:19;;;;;;;3.98;3.30;;;;;;;26.34;98.06;98188.91;1704016;84;28028;-86
2022/06/26 08:51:48;;;;;;;3.95;2.77;;;;;;;26.42;97.77;98187.30;1704737;82;28153;-86
2022/06/26 08:54:15;;;;;;;3.65;3.02;;;;;;;26.46;97.47;98188.52;1704554;84;28154;-86
2022/06/26 08:56:45;;;;;;;3.62;2.83;;;;;;;26.52;97.25;98187.66;1704325;82;28071;-86
2022/06/26 08:59:14;;;;;;;3.05;2.77;;;;;;;26.60;97.08;98184.22;1704177;82;28138;-85
2022/06/26 09:01:42;;;;;;;4.92;3.20;;;;;;;26.59;96.35;98183.91;1704785;82;28229;-86
2022/06/26 09:04:12;;;;;;;4.30;2.98;;;;;;;26.64;96.02;98183.27;1704917;82;28194;-86
2022/06/26 09:06:44;;;;;;;4.37;2.98;;;;;;;26.72;95.63;98182.20;1704306;84;28106;-84
2022/06/26 09:09:16;;;;;;;4.78;2.98;;;;;;;26.76;95.08;98183.41;1704861;82;28137;-85
2022/06/26 09:11:43;;;;;;;7.17;3.47;;;;;;;26.76;94.01;98182.06;1703320;82;28084;-85
2022/06/26 09:14:13;;;;;;;4.22;2.98;;;;;;;26.76;93.11;98188.77;1704805;82;28145;-89
2022/06/26 09:16:45;;;;;;;4.28;3.02;;;;;;;26.80;92.63;98186.78;1703530;82;28091;-86
2022/06/26 09:19:14;;;;;;;4.42;2.92;;;;;;;26.94;92.65;98188.91;1701036;82;28160;-84
2022/06/26 09:21:41;;;;;;;3.98;3.20;;;;;;;27.06;92.33;98187.97;1704220;82;28224;-89
2022/06/26 09:24:12;;;;;;;4.20;3.02;;;;;;;27.04;91.32;98185.21;1704541;82;28106;-86
2022/06/26 09:26:39;;;;;;;4.03;2.90;;;;;;;27.08;91.00;98183.73;1705098;83;28139;-86
2022/06/26 09:29:10;;;;;;;4.72;3.52;;;;;;;27.09;90.22;98185.38;1705139;84;28020;-86
2022/06/26 09:31:38;;;;;;;3.80;3.20;;;;;;;27.14;89.72;98186.06;1681789;84;28123;-86
2022/06/26 09:34:06;;;;;;;3.52;3.00;;;;;;;27.28;89.81;98190.27;1704679;82;28230;-86
2022/06/26 09:36:33;;;;;;;5.05;3.12;;;;;;;27.44;90.01;98183.83;1704545;83;28068;-89
2022/06/26 09:39:00;;;;;;;3.62;3.10;;;;;;;27.47;89.33;98181.23;1704943;83;28174;-84
2022/06/26 09:41:31;;;;;;;3.92;2.90;;;;;;;27.48;88.51;98189.61;1705154;83;28071;-89
2022/06/26 09:43:57;;;;;;;4.05;2.90;;;;;;;27.51;88.09;98187.84;1705782;82;28117;-84
2022/06/26 09:46:30;;;;;;;4.15;3.37;;;;;;;27.51;87.01;98190.52;1705417;84;28063;-84
2022/06/26 09:48:58;;;;;;;3.30;2.95;;;;;;;27.49;86.32;98189.36;1703741;82;28020;-84
2022/06/26 09:51:25;;;;;;;5.12;3.50;;;;;;;27.52;85.66;98191.35;1705324;82;28531;-84
2022/06/26 09:53:52;;;;;;;4.53;3.35;;;;;;;27.56;85.57;98183.96;1704027;83;28072;-86
2022/06/26 09:56:21;;;;;;;3.33;3.02;;;;;;;27.66;85.57;98180.23;1705181;82;28206;-86
2022/06/26 09:58:50;;;;;;;4.42;3.33;;;;;;;27.81;85.51;98182.59;1700152;83;28049;-86
2022/06/26 10:06:58;;;;;;;4.00;3.65;;;;;;;28.51;86.03;98190.58;1704402;82;28042;-85
2022/06/26 10:09:26;;;;;;;5.08;3.42;;;;;;;28.61;85.46;98185.46;1704547;83;28076;-85
2022/06/26 10:11:56;;;;;;;4.78;3.25;;;;;;;28.69;85.14;98185.13;1704735;83;28083;-84
2022/06/26 10:14:25;;;;;;;4.70;3.40;;;;;;;28.60;83.93;98191.89;1704824;83;28102;-84
2022/06/26 10:16:55;;;;;;;4.53;3.37;;;;;;;28.62;83.69;98185.77;1705205;81;28084;-89
2022/06/26 10:19:44;;;;;;;4.25;3.50;;;;;;;28.66;83.30;98187.47;1704899;82;28083;-89
2022/06/26 10:22:13;;;;;;;3.37;2.98;;;;;;;28.75;82.88;98190.16;1705307;82;28113;-88
2022/06/26 10:24:50;;;;;;;4.90;3.45;;;;;;;28.86;82.23;98181.84;1704270;82;28146;-89
2022/06/26 10:27:23;;;;;;;5.20;3.30;;;;;;;28.86;81.24;98184.54;1705162;83;28098;-89
2022/06/26 10:29:49;;;;;;;5.10;3.50;;;;;;;28.86;80.37;98176.45;1696868;83;28075;-89
2022/06/26 10:32:23;;;;;;;7.22;3.20;;;;;;;28.92;79.48;98175.51;1705074;82;28035;-88
2022/06/26 10:34:56;;;;;;;5.33;3.33;;;;;;;29.10;79.44;98183.00;1661400;83;28140;-89
2022/06/26 10:37:23;;;;;;;4.00;2.92;;;;;;;28.94;77.95;98179.63;1679059;83;28078;-86
2022/06/26 10:39:51;;;;;;;4.62;3.35;;;;;;;28.85;77.07;98181.55;1678113;84;28069;-84
2022/06/26 10:45:14;;;;;;;5.12;3.33;;;;;;;28.81;76.56;98174.95;1678079;84;28080;-85
2022/06/26 10:47:49;;;;;;;5.05;3.25;;;;;;;28.73;75.86;98176.12;1677508;85;28143;-85
2022/06/26 10:50:31;;;;;;;3.20;2.95;;;;;;;28.71;75.68;98176.30;1678305;84;28011;-86
2022/06/26 10:53:20;;;;;;;3.22;2.67;;;;;;;28.72;75.10;98179.82;1678219;83;28047;-89
2022/06/26 10:55:50;;;;;;;6.47;3.37;;;;;;;28.86;75.22;98175.91;1678404;84;28076;-86
2022/06/26 10:58:25;;;;;;;3.15;2.60;;;;;;;29.16;75.17;98179.91;1677589;84;28073;-86
2022/06/26 11:00:54;;;;;;;3.37;2.75;;;;;;;29.36;74.79;98183.12;1671926;84;28068;-84
2022/06/26 11:03:21;;;;;;;4.22;2.85;;;;;;;29.51;73.92;98180.78;1678500;84;28178;-85
2022/06/26 11:06:02;;;;;;;3.83;3.25;;;;;;;29.66;73.34;98174.11;1678490;84;28073;-85
2022/06/26 11:08:40;;;;;;;3.22;2.87;;;;;;;29.79;72.55;98180.06;1678537;83;28198;-88
2022/06/26 11:11:09;;;;;;;3.05;2.75;;;;;;;29.91;71.86;98176.05;1675498;84;28001;-88
2022/06/26 11:13:38;;;;;;;3.10;2.40;;;;;;;29.97;71.08;98181.02;1705558;83;28082;-89
2022/06/26 11:16:05;;;;;;;3.98;3.20;;;;;;;30.11;70.59;98174.32;1706006;82;28170;-86
2022/06/26 11:18:35;;;;;;;3.77;2.80;;;;;;;30.24;69.90;98169.98;1705315;82;28139;-86
2022/06/26 11:21:03;;;;;;;5.85;2.72;;;;;;;30.31;69.11;98176.91;1705446;82;28137;-86
2022/06/26 11:23:36;;;;;;;2.60;2.40;;;;;;;30.28;68.07;98176.02;1705431;82;28130;-85
2022/06/26 11:26:11;;;;;;;3.80;2.67;;;;;;;30.32;67.81;98178.55;1703423;83;28064;-85
2022/06/26 11:28:41;;;;;;;2.70;2.50;;;;;;;30.32;66.98;98175.84;1703413;82;28221;-85
2022/06/26 11:31:10;;;;;;;2.90;2.60;;;;;;;30.39;66.47;98175.68;1704920;83;28058;-85
2022/06/26 11:33:38;;;;;;;3.42;2.80;;;;;;;30.38;65.59;98171.89;1705413;83;28072;-89
2022/06/26 11:36:14;;;;;;;5.42;3.70;;;;;;;30.40;65.21;98167.05;1705137;82;28090;-86
2022/06/26 11:38:53;;;;;;;3.12;2.72;;;;;;;30.51;64.97;98169.75;1705346;81;28154;-86
2022/06/26 11:41:20;;;;;;;3.30;3.00;;;;;;;30.66;64.83;98172.73;1705446;83;28010;-86
2022/06/26 11:43:49;;;;;;;2.87;2.65;;;;;;;30.77;64.14;98175.08;1705368;83;28200;-86